sensor_id;sensor_type;location;lat;lon;timestamp;pressure;altitude;pressure_sealevel;temperature;humidity
78431;BME280;67727;50.236;22.452;2023-06-19T00:01:13;99654.66;;;14.25;80.78
78431;BME280;67727;50.236;22.452;2023-06-19T00:03:40;99650.35;;;14.22;80.84
78431;BME280;67727;50.236;22.452;2023-06-19T00:06:07;99650.52;;;14.21;80.79
78431;BME280;67727;50.236;22.452;2023-06-19T00:08:35;99647.81;;;14.22;80.66
78431;BME280;67727;50.236;22.452;2023-06-19T00:11:02;99645.56;;;14.21;80.72
78431;BME280;67727;50.236;22.452;2023-06-19T00:13:29;99652.86;;;14.21;80.74
78431;BME280;67727;50.236;22.452;2023-06-19T00:15:56;99656.02;;;14.21;80.84
78431;BME280;67727;50.236;22.452;2023-06-19T00:18:27;99656.25;;;14.20;80.65
78431;BME280;67727;50.236;22.452;2023-06-19T00:20:55;99652.23;;;14.16;80.53
78431;BME280;67727;50.236;22.452;2023-06-19T00:23:23;99652.19;;;14.14;80.48
78431;BME280;67727;50.236;22.452;2023-06-19T00:25:50;99652.55;;;14.12;80.53
78431;BME280;67727;50.236;22.452;2023-06-19T00:28:17;99647.61;;;14.11;80.26
78431;BME280;67727;50.236;22.452;2023-06-19T00:30:46;99651.76;;;14.09;80.32
78431;BME280;67727;50.236;22.452;2023-06-19T00:33:13;99653.73;;;14.05;80.21
78431;BME280;67727;50.236;22.452;2023-06-19T00:35:40;99645.70;;;14.01;80.18
78431;BME280;67727;50.236;22.452;2023-06-19T00:38:08;99648.46;;;13.97;79.92
78431;BME280;67727;50.236;22.452;2023-06-19T00:40:35;99648.42;;;13.94;79.96
78431;BME280;67727;50.236;22.452;2023-06-19T00:43:03;99645.54;;;13.89;79.78
78431;BME280;67727;50.236;22.452;2023-06-19T00:45:30;99648.41;;;13.84;80.00
78431;BME280;67727;50.236;22.452;2023-06-19T00:47:59;99652.38;;;13.81;79.80
78431;BME280;67727;50.236;22.452;2023-06-19T00:50:28;99650.93;;;13.77;79.72
78431;BME280;67727;50.236;22.452;2023-06-19T00:52:59;99653.63;;;13.74;79.82
78431;BME280;67727;50.236;22.452;2023-06-19T00:55:29;99651.23;;;13.71;79.80
78431;BME280;67727;50.236;22.452;2023-06-19T00:57:56;99648.26;;;13.66;79.64
78431;BME280;67727;50.236;22.452;2023-06-19T01:00:24;99643.73;;;13.63;79.60
78431;BME280;67727;50.236;22.452;2023-06-19T01:02:51;99645.95;;;13.59;79.55
78431;BME280;67727;50.236;22.452;2023-06-19T01:05:18;99646.50;;;13.58;79.68
78431;BME280;67727;50.236;22.452;2023-06-19T01:10:38;99646.19;;;13.54;79.47
78431;BME280;67727;50.236;22.452;2023-06-19T01:13:12;99647.16;;;13.50;79.51
78431;BME280;67727;50.236;22.452;2023-06-19T01:15:43;99644.60;;;13.48;79.48
78431;BME280;67727;50.236;22.452;2023-06-19T01:18:10;99636.95;;;13.44;79.34
78431;BME280;67727;50.236;22.452;2023-06-19T01:20:38;99635.75;;;13.41;79.29
78431;BME280;67727;50.236;22.452;2023-06-19T01:23:09;99637.61;;;13.38;79.39
78431;BME280;67727;50.236;22.452;2023-06-19T01:25:36;99640.64;;;13.36;79.75
78431;BME280;67727;50.236;22.452;2023-06-19T01:28:05;99639.61;;;13.34;79.59
78431;BME280;67727;50.236;22.452;2023-06-19T01:30:34;99639.30;;;13.33;79.77
78431;BME280;67727;50.236;22.452;2023-06-19T01:33:20;99643.09;;;13.35;79.51
78431;BME280;67727;50.236;22.452;2023-06-19T01:35:50;99646.95;;;13.32;79.49
78431;BME280;67727;50.236;22.452;2023-06-19T01:38:18;99642.56;;;13.29;79.48
78431;BME280;67727;50.236;22.452;2023-06-19T01:40:46;99646.27;;;13.26;79.43
78431;BME280;67727;50.236;22.452;2023-06-19T01:43:15;99647.45;;;13.24;79.37
78431;BME280;67727;50.236;22.452;2023-06-19T01:45:42;99649.12;;;13.22;79.43
78431;BME280;67727;50.236;22.452;2023-06-19T01:48:10;99642.95;;;13.20;79.45
78431;BME280;67727;50.236;22.452;2023-06-19T01:50:37;99642.69;;;13.19;79.31
78431;BME280;67727;50.236;22.452;2023-06-19T01:53:03;99644.95;;;13.17;79.02
78431;BME280;67727;50.236;22.452;2023-06-19T01:55:30;99645.52;;;13.12;79.36
78431;BME280;67727;50.236;22.452;2023-06-19T01:57:57;99648.67;;;13.09;79.28
78431;BME280;67727;50.236;22.452;2023-06-19T02:00:24;99648.23;;;13.07;79.19
78431;BME280;67727;50.236;22.452;2023-06-19T02:02:51;99652.52;;;13.03;79.31
78431;BME280;67727;50.236;22.452;2023-06-19T02:05:18;99652.34;;;13.02;79.31
78431;BME280;67727;50.236;22.452;2023-06-19T02:07:45;99654.89;;;13.00;79.41
78431;BME280;67727;50.236;22.452;2023-06-19T02:10:12;99652.39;;;12.99;79.33
78431;BME280;67727;50.236;22.452;2023-06-19T02:12:39;99651.84;;;12.96;79.23
78431;BME280;67727;50.236;22.452;2023-06-19T02:15:07;99649.56;;;12.93;79.36
78431;BME280;67727;50.236;22.452;2023-06-19T02:17:34;99652.40;;;12.89;79.34
78431;BME280;67727;50.236;22.452;2023-06-19T02:20:01;99651.91;;;12.86;79.40
78431;BME280;67727;50.236;22.452;2023-06-19T02:22:28;99655.39;;;12.84;79.48
78431;BME280;67727;50.236;22.452;2023-06-19T02:24:56;99654.60;;;12.82;79.61
78431;BME280;67727;50.236;22.452;2023-06-19T02:27:23;99649.45;;;12.80;79.58
78431;BME280;67727;50.236;22.452;2023-06-19T02:29:50;99652.59;;;12.79;79.54
78431;BME280;67727;50.236;22.452;2023-06-19T02:32:17;99650.58;;;12.77;79.67
78431;BME280;67727;50.236;22.452;2023-06-19T02:34:45;99653.14;;;12.74;79.71
78431;BME280;67727;50.236;22.452;2023-06-19T02:37:12;99652.86;;;12.71;79.72
78431;BME280;67727;50.236;22.452;2023-06-19T02:39:39;99652.85;;;12.68;79.70
78431;BME280;67727;50.236;22.452;2023-06-19T02:42:06;99653.30;;;12.66;79.92
78431;BME280;67727;50.236;22.452;2023-06-19T02:44:33;99652.04;;;12.66;79.94
78431;BME280;67727;50.236;22.452;2023-06-19T02:47:00;99651.09;;;12.66;79.88
78431;BME280;67727;50.236;22.452;2023-06-19T02:49:27;99647.73;;;12.65;80.00
78431;BME280;67727;50.236;22.452;2023-06-19T02:51:55;99648.14;;;12.64;80.09
78431;BME280;67727;50.236;22.452;2023-06-19T02:54:22;99649.80;;;12.62;80.17
78431;BME280;67727;50.236;22.452;2023-06-19T02:56:49;99654.89;;;12.61;80.46
78431;BME280;67727;50.236;22.452;2023-06-19T02:59:16;99651.37;;;12.60;80.32
78431;BME280;67727;50.236;22.452;2023-06-19T03:01:43;99656.63;;;12.61;80.41
78431;BME280;67727;50.236;22.452;2023-06-19T03:04:10;99654.63;;;12.61;80.44
78431;BME280;67727;50.236;22.452;2023-06-19T03:06:37;99657.55;;;12.64;80.62
78431;BME280;67727;50.236;22.452;2023-06-19T03:09:06;99654.31;;;12.65;80.87
78431;BME280;67727;50.236;22.452;2023-06-19T03:11:39;99655.72;;;12.67;80.76
78431;BME280;67727;50.236;22.452;2023-06-19T03:14:07;99662.70;;;12.69;80.90
78431;BME280;67727;50.236;22.452;2023-06-19T03:16:35;99666.44;;;12.70;81.17
78431;BME280;67727;50.236;22.452;2023-06-19T03:19:02;99663.66;;;12.71;80.82
78431;BME280;67727;50.236;22.452;2023-06-19T03:21:29;99665.70;;;12.71;81.09
78431;BME280;67727;50.236;22.452;2023-06-19T03:23:56;99669.20;;;12.73;81.38
78431;BME280;67727;50.236;22.452;2023-06-19T03:26:23;99668.30;;;12.78;81.39
78431;BME280;67727;50.236;22.452;2023-06-19T03:28:51;99668.88;;;12.83;81.30
78431;BME280;67727;50.236;22.452;2023-06-19T03:31:18;99671.89;;;12.89;81.09
78431;BME280;67727;50.236;22.452;2023-06-19T03:33:45;99672.82;;;12.93;81.28
78431;BME280;67727;50.236;22.452;2023-06-19T03:36:11;99678.36;;;12.96;81.18
78431;BME280;67727;50.236;22.452;2023-06-19T03:38:38;99677.66;;;12.94;81.03
78431;BME280;67727;50.236;22.452;2023-06-19T03:41:05;99676.89;;;12.95;81.03
78431;BME280;67727;50.236;22.452;2023-06-19T03:43:32;99679.20;;;12.96;81.28
78431;BME280;67727;50.236;22.452;2023-06-19T03:45:59;99682.19;;;12.98;81.43
78431;BME280;67727;50.236;22.452;2023-06-19T03:48:26;99681.54;;;13.00;81.43
78431;BME280;67727;50.236;22.452;2023-06-19T03:50:53;99683.83;;;13.04;82.20
78431;BME280;67727;50.236;22.452;2023-06-19T03:53:19;99681.59;;;13.12;82.69
78431;BME280;67727;50.236;22.452;2023-06-19T03:55:46;99680.84;;;13.22;83.45
78431;BME280;67727;50.236;22.452;2023-06-19T03:58:13;99677.42;;;13.37;84.08
78431;BME280;67727;50.236;22.452;2023-06-19T04:00:41;99679.13;;;13.60;85.38
78431;BME280;67727;50.236;22.452;2023-06-19T04:03:07;99688.03;;;13.88;85.55
78431;BME280;67727;50.236;22.452;2023-06-19T04:05:36;99686.95;;;14.14;84.96
78431;BME280;67727;50.236;22.452;2023-06-19T04:08:03;99689.31;;;14.43;84.49
78431;BME280;67727;50.236;22.452;2023-06-19T04:10:30;99684.49;;;14.71;83.78
78431;BME280;67727;50.236;22.452;2023-06-19T04:12:57;99683.52;;;14.98;83.23
78431;BME280;67727;50.236;22.452;2023-06-19T04:15:24;99687.91;;;15.24;82.70
78431;BME280;67727;50.236;22.452;2023-06-19T04:17:51;99681.69;;;15.43;81.16
78431;BME280;67727;50.236;22.452;2023-06-19T04:20:18;99686.59;;;15.61;80.53
78431;BME280;67727;50.236;22.452;2023-06-19T04:22:46;99691.17;;;15.76;79.84
78431;BME280;67727;50.236;22.452;2023-06-19T04:25:13;99689.89;;;15.90;79.81
78431;BME280;67727;50.236;22.452;2023-06-19T04:27:40;99689.74;;;16.08;79.63
78431;BME280;67727;50.236;22.452;2023-06-19T04:30:07;99690.11;;;16.27;79.33
78431;BME280;67727;50.236;22.452;2023-06-19T04:32:35;99694.07;;;16.41;78.16
78431;BME280;67727;50.236;22.452;2023-06-19T04:35:02;99698.04;;;16.52;77.33
78431;BME280;67727;50.236;22.452;2023-06-19T04:37:29;99695.83;;;16.64;77.80
78431;BME280;67727;50.236;22.452;2023-06-19T04:39:56;99700.96;;;16.75;76.76
78431;BME280;67727;50.236;22.452;2023-06-19T04:42:24;99699.17;;;16.78;76.38
78431;BME280;67727;50.236;22.452;2023-06-19T04:44:53;99698.75;;;16.85;76.29
78431;BME280;67727;50.236;22.452;2023-06-19T04:47:23;99698.57;;;16.94;76.15
78431;BME280;67727;50.236;22.452;2023-06-19T04:49:50;99697.34;;;16.98;75.01
78431;BME280;67727;50.236;22.452;2023-06-19T04:52:17;99701.39;;;16.97;74.95
78431;BME280;67727;50.236;22.452;2023-06-19T04:54:45;99699.49;;;16.95;74.81
78431;BME280;67727;50.236;22.452;2023-06-19T04:57:12;99700.93;;;16.91;74.58
78431;BME280;67727;50.236;22.452;2023-06-19T04:59:38;99703.38;;;16.85;74.88
78431;BME280;67727;50.236;22.452;2023-06-19T05:02:05;99701.04;;;16.88;75.59
78431;BME280;67727;50.236;22.452;2023-06-19T05:04:33;99704.84;;;16.97;75.80
78431;BME280;67727;50.236;22.452;2023-06-19T05:07:00;99703.60;;;17.12;75.86
78431;BME280;67727;50.236;22.452;2023-06-19T05:09:27;99706.52;;;17.25;75.69
78431;BME280;67727;50.236;22.452;2023-06-19T05:11:54;99709.14;;;17.39;76.03
78431;BME280;67727;50.236;22.452;2023-06-19T05:14:21;99702.21;;;17.52;75.15
78431;BME280;67727;50.236;22.452;2023-06-19T05:16:48;99706.08;;;17.61;75.09
78431;BME280;67727;50.236;22.452;2023-06-19T05:19:15;99709.18;;;17.69;74.92
78431;BME280;67727;50.236;22.452;2023-06-19T05:21:42;99710.63;;;17.79;75.25
78431;BME280;67727;50.236;22.452;2023-06-19T05:24:09;99709.03;;;17.96;75.51
78431;BME280;67727;50.236;22.452;2023-06-19T05:26:35;99706.93;;;18.13;74.49
78431;BME280;67727;50.236;22.452;2023-06-19T05:29:02;99707.21;;;18.27;74.21
78431;BME280;67727;50.236;22.452;2023-06-19T05:31:29;99703.19;;;18.41;74.13
78431;BME280;67727;50.236;22.452;2023-06-19T05:33:56;99705.20;;;18.59;74.55
78431;BME280;67727;50.236;22.452;2023-06-19T05:36:25;99704.23;;;18.79;74.59
78431;BME280;67727;50.236;22.452;2023-06-19T05:38:51;99705.10;;;19.06;74.92
78431;BME280;67727;50.236;22.452;2023-06-19T05:41:18;99706.30;;;19.31;74.16
78431;BME280;67727;50.236;22.452;2023-06-19T05:43:45;99707.13;;;19.57;74.15
78431;BME280;67727;50.236;22.452;2023-06-19T05:46:12;99707.70;;;19.78;72.50
78431;BME280;67727;50.236;22.452;2023-06-19T05:48:39;99702.18;;;19.94;72.18
78431;BME280;67727;50.236;22.452;2023-06-19T05:51:05;99702.84;;;20.10;71.70
78431;BME280;67727;50.236;22.452;2023-06-19T05:53:32;99699.23;;;20.30;72.58
78431;BME280;67727;50.236;22.452;2023-06-19T05:55:59;99700.15;;;20.54;72.18
78431;BME280;67727;50.236;22.452;2023-06-19T05:58:26;99704.24;;;20.78;71.63
78431;BME280;67727;50.236;22.452;2023-06-19T06:00:53;99706.24;;;20.98;70.47
78431;BME280;67727;50.236;22.452;2023-06-19T06:03:24;99705.59;;;21.20;70.97
78431;BME280;67727;50.236;22.452;2023-06-19T06:05:52;99708.73;;;21.43;70.32
78431;BME280;67727;50.236;22.452;2023-06-19T06:08:19;99712.79;;;21.64;69.48
78431;BME280;67727;50.236;22.452;2023-06-19T06:10:46;99715.95;;;21.78;68.61
78431;BME280;67727;50.236;22.452;2023-06-19T06:13:13;99715.41;;;21.82;68.20
78431;BME280;67727;50.236;22.452;2023-06-19T06:15:40;99711.58;;;21.85;68.08
78431;BME280;67727;50.236;22.452;2023-06-19T06:18:07;99709.15;;;21.99;67.86
78431;BME280;67727;50.236;22.452;2023-06-19T06:20:33;99714.38;;;22.13;67.47
78431;BME280;67727;50.236;22.452;2023-06-19T06:23:03;99715.30;;;22.31;67.98
78431;BME280;67727;50.236;22.452;2023-06-19T06:25:29;99715.06;;;22.49;66.25
78431;BME280;67727;50.236;22.452;2023-06-19T06:27:56;99715.80;;;22.63;65.62
78431;BME280;67727;50.236;22.452;2023-06-19T06:30:23;99719.73;;;22.78;66.35
78431;BME280;67727;50.236;22.452;2023-06-19T06:32:50;99718.81;;;22.88;64.48
78431;BME280;67727;50.236;22.452;2023-06-19T06:35:17;99720.88;;;23.00;64.63
78431;BME280;67727;50.236;22.452;2023-06-19T06:37:44;99721.20;;;23.13;64.04
78431;BME280;67727;50.236;22.452;2023-06-19T06:40:13;99723.81;;;23.30;64.77
78431;BME280;67727;50.236;22.452;2023-06-19T06:42:40;99724.27;;;23.48;64.32
78431;BME280;67727;50.236;22.452;2023-06-19T06:45:07;99725.12;;;23.60;63.37
78431;BME280;67727;50.236;22.452;2023-06-19T06:47:34;99725.84;;;23.71;62.86
78431;BME280;67727;50.236;22.452;2023-06-19T06:50:01;99729.27;;;23.81;62.98
78431;BME280;67727;50.236;22.452;2023-06-19T06:52:28;99731.61;;;23.96;63.59
78431;BME280;67727;50.236;22.452;2023-06-19T06:54:57;99729.30;;;24.14;62.58
78431;BME280;67727;50.236;22.452;2023-06-19T06:57:24;99731.23;;;24.23;60.61
78431;BME280;67727;50.236;22.452;2023-06-19T06:59:51;99732.27;;;24.24;61.03
78431;BME280;67727;50.236;22.452;2023-06-19T07:02:18;99731.55;;;24.33;62.09
78431;BME280;67727;50.236;22.452;2023-06-19T07:04:47;99731.02;;;24.47;61.15
78431;BME280;67727;50.236;22.452;2023-06-19T07:07:14;99730.02;;;24.58;61.38
78431;BME280;67727;50.236;22.452;2023-06-19T07:09:41;99728.15;;;24.75;61.48
78431;BME280;67727;50.236;22.452;2023-06-19T07:12:08;99727.41;;;24.92;61.14
78431;BME280;67727;50.236;22.452;2023-06-19T07:14:35;99729.17;;;25.08;60.12
78431;BME280;67727;50.236;22.452;2023-06-19T07:17:02;99726.04;;;25.22;59.44
78431;BME280;67727;50.236;22.452;2023-06-19T07:19:29;99723.69;;;25.36;59.70
78431;BME280;67727;50.236;22.452;2023-06-19T07:21:56;99722.20;;;25.47;57.95
78431;BME280;67727;50.236;22.452;2023-06-19T07:24:23;99720.26;;;25.45;57.54
78431;BME280;67727;50.236;22.452;2023-06-19T07:26:50;99724.11;;;25.42;57.33
78431;BME280;67727;50.236;22.452;2023-06-19T07:29:17;99726.45;;;25.46;58.43
78431;BME280;67727;50.236;22.452;2023-06-19T07:31:44;99724.09;;;25.54;57.31
78431;BME280;67727;50.236;22.452;2023-06-19T07:34:11;99721.70;;;25.59;58.50
78431;BME280;67727;50.236;22.452;2023-06-19T07:36:38;99725.10;;;25.71;57.92
78431;BME280;67727;50.236;22.452;2023-06-19T07:39:07;99723.73;;;25.82;58.23
78431;BME280;67727;50.236;22.452;2023-06-19T07:41:34;99722.91;;;25.99;57.90
78431;BME280;67727;50.236;22.452;2023-06-19T07:44:01;99724.44;;;26.15;57.48
78431;BME280;67727;50.236;22.452;2023-06-19T07:46:28;99720.70;;;26.32;57.09
78431;BME280;67727;50.236;22.452;2023-06-19T07:48:55;99721.45;;;26.49;56.49
78431;BME280;67727;50.236;22.452;2023-06-19T07:51:25;99721.27;;;26.62;55.68
78431;BME280;67727;50.236;22.452;2023-06-19T07:53:52;99720.54;;;26.74;56.15
78431;BME280;67727;50.236;22.452;2023-06-19T07:56:19;99716.80;;;26.87;54.87
78431;BME280;67727;50.236;22.452;2023-06-19T07:58:46;99719.25;;;27.02;56.04
78431;BME280;67727;50.236;22.452;2023-06-19T08:01:13;99716.67;;;27.14;54.22
78431;BME280;67727;50.236;22.452;2023-06-19T08:03:41;99722.34;;;27.19;53.64
78431;BME280;67727;50.236;22.452;2023-06-19T08:06:09;99720.30;;;27.16;51.10
78431;BME280;67727;50.236;22.452;2023-06-19T08:08:36;99718.32;;;27.03;52.18
78431;BME280;67727;50.236;22.452;2023-06-19T08:11:03;99720.98;;;27.05;53.10
78431;BME280;67727;50.236;22.452;2023-06-19T08:13:30;99722.92;;;26.98;53.18
78431;BME280;67727;50.236;22.452;2023-06-19T08:15:57;99722.80;;;26.78;52.82
78431;BME280;67727;50.236;22.452;2023-06-19T08:18:24;99722.77;;;26.79;51.63
78431;BME280;67727;50.236;22.452;2023-06-19T08:20:50;99723.31;;;26.81;51.15
78431;BME280;67727;50.236;22.452;2023-06-19T08:23:17;99726.62;;;26.92;52.50
78431;BME280;67727;50.236;22.452;2023-06-19T08:25:44;99726.30;;;27.15;53.65
78431;BME280;67727;50.236;22.452;2023-06-19T08:28:11;99732.39;;;27.34;51.67
78431;BME280;67727;50.236;22.452;2023-06-19T08:30:37;99730.03;;;27.10;49.68
78431;BME280;67727;50.236;22.452;2023-06-19T08:33:04;99729.46;;;26.89;51.15
78431;BME280;67727;50.236;22.452;2023-06-19T08:35:31;99730.15;;;27.01;52.13
78431;BME280;67727;50.236;22.452;2023-06-19T08:37:58;99727.88;;;27.27;52.81
78431;BME280;67727;50.236;22.452;2023-06-19T08:40:24;99726.46;;;27.55;50.37
78431;BME280;67727;50.236;22.452;2023-06-19T08:42:51;99727.58;;;27.69;49.33
78431;BME280;67727;50.236;22.452;2023-06-19T08:45:19;99728.83;;;27.91;50.76
78431;BME280;67727;50.236;22.452;2023-06-19T08:47:48;99731.23;;;28.04;48.97
78431;BME280;67727;50.236;22.452;2023-06-19T08:50:16;99732.37;;;27.86;48.75
78431;BME280;67727;50.236;22.452;2023-06-19T08:52:43;99734.91;;;27.59;47.36
78431;BME280;67727;50.236;22.452;2023-06-19T08:55:10;99734.30;;;27.33;47.52
78431;BME280;67727;50.236;22.452;2023-06-19T08:57:38;99731.34;;;27.36;49.36
78431;BME280;67727;50.236;22.452;2023-06-19T09:00:06;99728.59;;;27.49;48.94
78431;BME280;67727;50.236;22.452;2023-06-19T09:02:44;99728.27;;;27.73;48.64
78431;BME280;67727;50.236;22.452;2023-06-19T09:05:16;99729.02;;;27.98;48.85
78431;BME280;67727;50.236;22.452;2023-06-19T09:07:53;99721.99;;;28.28;49.26
78431;BME280;67727;50.236;22.452;2023-06-19T09:10:20;99718.73;;;28.49;47.70
78431;BME280;67727;50.236;22.452;2023-06-19T09:13:02;99717.34;;;28.48;45.84
78431;BME280;67727;50.236;22.452;2023-06-19T09:15:32;99716.55;;;28.41;46.14
78431;BME280;67727;50.236;22.452;2023-06-19T09:18:06;99717.75;;;28.37;46.65
78431;BME280;67727;50.236;22.452;2023-06-19T09:20:37;99711.42;;;28.46;46.40
78431;BME280;67727;50.236;22.452;2023-06-19T09:23:05;99710.81;;;28.61;45.45
78431;BME280;67727;50.236;22.452;2023-06-19T09:25:57;99709.63;;;28.75;45.17
78431;BME280;67727;50.236;22.452;2023-06-19T09:28:27;99712.20;;;28.67;44.67
78431;BME280;67727;50.236;22.452;2023-06-19T09:30:56;99710.77;;;28.71;45.21
78431;BME280;67727;50.236;22.452;2023-06-19T09:33:28;99715.98;;;28.59;44.74
78431;BME280;67727;50.236;22.452;2023-06-19T09:35:57;99720.10;;;28.28;45.45
78431;BME280;67727;50.236;22.452;2023-06-19T09:38:29;99717.50;;;27.90;46.18
78431;BME280;67727;50.236;22.452;2023-06-19T09:40:57;99720.60;;;27.54;46.47
78431;BME280;67727;50.236;22.452;2023-06-19T09:43:37;99719.72;;;27.20;47.29
78431;BME280;67727;50.236;22.452;2023-06-19T09:46:06;99719.05;;;26.92;48.54
78431;BME280;67727;50.236;22.452;2023-06-19T09:48:34;99726.03;;;26.67;48.90
78431;BME280;67727;50.236;22.452;2023-06-19T09:51:12;99724.14;;;26.46;49.79
78431;BME280;67727;50.236;22.452;2023-06-19T09:53:44;99724.30;;;26.32;50.28
78431;BME280;67727;50.236;22.452;2023-06-19T09:56:13;99720.27;;;26.20;50.79
78431;BME280;67727;50.236;22.452;2023-06-19T09:58:42;99719.66;;;26.13;50.42
78431;BME280;67727;50.236;22.452;2023-06-19T10:01:09;99715.93;;;26.09;50.87
78431;BME280;67727;50.236;22.452;2023-06-19T10:03:37;99714.28;;;26.12;49.56
78431;BME280;67727;50.236;22.452;2023-06-19T10:06:04;99713.85;;;26.10;48.78
78431;BME280;67727;50.236;22.452;2023-06-19T10:08:38;99710.66;;;26.05;49.38
78431;BME280;67727;50.236;22.452;2023-06-19T10:11:06;99710.73;;;26.01;49.00
78431;BME280;67727;50.236;22.452;2023-06-19T10:13:35;99712.34;;;25.95;49.86
78431;BME280;67727;50.236;22.452;2023-06-19T10:16:03;99710.20;;;25.86;49.85
78431;BME280;67727;50.236;22.452;2023-06-19T10:18:31;99713.73;;;25.79;49.05
78431;BME280;67727;50.236;22.452;2023-06-19T10:20:58;99712.02;;;25.89;50.31
78431;BME280;67727;50.236;22.452;2023-06-19T10:23:25;99710.17;;;26.21;51.34
78431;BME280;67727;50.236;22.452;2023-06-19T10:30:55;99704.96;;;27.20;47.82
78431;BME280;67727;50.236;22.452;2023-06-19T10:33:27;99705.75;;;27.53;47.23
78431;BME280;67727;50.236;22.452;2023-06-19T10:35:54;99703.50;;;27.57;45.25
78431;BME280;67727;50.236;22.452;2023-06-19T10:38:21;99702.78;;;27.49;46.32
78431;BME280;67727;50.236;22.452;2023-06-19T10:40:48;99700.39;;;27.38;46.65
78431;BME280;67727;50.236;22.452;2023-06-19T10:43:23;99701.90;;;27.22;45.74
78431;BME280;67727;50.236;22.452;2023-06-19T10:45:51;99698.15;;;27.01;46.51
78431;BME280;67727;50.236;22.452;2023-06-19T10:48:19;99697.21;;;26.80;46.49
78431;BME280;67727;50.236;22.452;2023-06-19T10:50:47;99695.11;;;26.63;47.25
78431;BME280;67727;50.236;22.452;2023-06-19T10:53:28;99694.20;;;26.51;46.96
78431;BME280;67727;50.236;22.452;2023-06-19T10:55:57;99692.79;;;26.40;47.77
78431;BME280;67727;50.236;22.452;2023-06-19T10:58:24;99692.73;;;26.27;47.46
78431;BME280;67727;50.236;22.452;2023-06-19T11:00:52;99692.41;;;26.16;48.26
78431;BME280;67727;50.236;22.452;2023-06-19T11:03:20;99689.42;;;26.18;48.82
78431;BME280;67727;50.236;22.452;2023-06-19T11:05:48;99690.54;;;26.32;48.62
78431;BME280;67727;50.236;22.452;2023-06-19T11:08:19;99687.20;;;26.49;48.75
78431;BME280;67727;50.236;22.452;2023-06-19T11:10:46;99681.54;;;26.50;47.84
78431;BME280;67727;50.236;22.452;2023-06-19T11:13:20;99678.45;;;26.49;46.81
78431;BME280;67727;50.236;22.452;2023-06-19T11:15:47;99679.70;;;26.57;47.35
78431;BME280;67727;50.236;22.452;2023-06-19T11:18:17;99682.02;;;26.50;46.15
78431;BME280;67727;50.236;22.452;2023-06-19T11:20:49;99680.66;;;26.40;46.73
78431;BME280;67727;50.236;22.452;2023-06-19T11:23:25;99674.37;;;26.36;46.31
78431;BME280;67727;50.236;22.452;2023-06-19T11:25:54;99668.52;;;26.45;47.24
78431;BME280;67727;50.236;22.452;2023-06-19T11:28:27;99663.20;;;26.62;46.79
78431;BME280;67727;50.236;22.452;2023-06-19T11:31:01;99662.41;;;26.78;45.39
78431;BME280;67727;50.236;22.452;2023-06-19T11:33:28;99663.85;;;26.95;44.70
78431;BME280;67727;50.236;22.452;2023-06-19T11:36:00;99663.85;;;27.09;44.84
78431;BME280;67727;50.236;22.452;2023-06-19T11:38:27;99660.59;;;27.27;44.93
78431;BME280;67727;50.236;22.452;2023-06-19T11:40:55;99659.69;;;27.41;43.40
78431;BME280;67727;50.236;22.452;2023-06-19T11:43:32;99660.90;;;27.40;44.27
78431;BME280;67727;50.236;22.452;2023-06-19T11:46:02;99661.02;;;27.27;44.74
78431;BME280;67727;50.236;22.452;2023-06-19T11:48:30;99655.91;;;27.10;45.32
78431;BME280;67727;50.236;22.452;2023-06-19T11:50:57;99655.54;;;26.95;45.40
78431;BME280;67727;50.236;22.452;2023-06-19T11:53:24;99657.38;;;26.76;45.68
78431;BME280;67727;50.236;22.452;2023-06-19T11:55:51;99656.15;;;26.64;46.35
78431;BME280;67727;50.236;22.452;2023-06-19T11:58:18;99658.34;;;26.63;47.50
78431;BME280;67727;50.236;22.452;2023-06-19T12:00:49;99658.16;;;26.79;46.76
78431;BME280;67727;50.236;22.452;2023-06-19T12:03:16;99657.55;;;26.99;45.69
78431;BME280;67727;50.236;22.452;2023-06-19T12:05:43;99657.77;;;27.19;44.57
78431;BME280;67727;50.236;22.452;2023-06-19T12:08:10;99646.52;;;27.40;44.89
78431;BME280;67727;50.236;22.452;2023-06-19T12:10:37;99653.19;;;27.62;44.21
78431;BME280;67727;50.236;22.452;2023-06-19T12:13:04;99651.54;;;27.80;44.97
78431;BME280;67727;50.236;22.452;2023-06-19T12:15:31;99654.31;;;27.93;43.80
78431;BME280;67727;50.236;22.452;2023-06-19T12:17:58;99654.80;;;27.80;42.32
78431;BME280;67727;50.236;22.452;2023-06-19T12:20:25;99656.30;;;27.61;43.52
78431;BME280;67727;50.236;22.452;2023-06-19T12:22:52;99655.89;;;27.50;43.89
78431;BME280;67727;50.236;22.452;2023-06-19T12:25:19;99650.41;;;27.52;44.09
78431;BME280;67727;50.236;22.452;2023-06-19T12:27:46;99653.05;;;27.54;44.35
78431;BME280;67727;50.236;22.452;2023-06-19T12:30:14;99645.55;;;27.45;44.97
78431;BME280;67727;50.236;22.452;2023-06-19T12:32:41;99644.88;;;27.35;44.22
78431;BME280;67727;50.236;22.452;2023-06-19T12:35:08;99646.71;;;27.20;43.90
78431;BME280;67727;50.236;22.452;2023-06-19T12:37:35;99647.23;;;27.05;44.05
78431;BME280;67727;50.236;22.452;2023-06-19T12:40:02;99648.70;;;26.91;44.53
78431;BME280;67727;50.236;22.452;2023-06-19T12:42:34;99647.33;;;26.72;44.95
78431;BME280;67727;50.236;22.452;2023-06-19T12:45:03;99645.06;;;26.57;46.00
78431;BME280;67727;50.236;22.452;2023-06-19T12:47:30;99643.83;;;26.49;45.89
78431;BME280;67727;50.236;22.452;2023-06-19T12:49:57;99638.89;;;26.54;47.32
78431;BME280;67727;50.236;22.452;2023-06-19T12:52:24;99632.04;;;26.67;46.18
78431;BME280;67727;50.236;22.452;2023-06-19T12:54:51;99634.48;;;26.82;45.10
78431;BME280;67727;50.236;22.452;2023-06-19T12:57:18;99631.75;;;26.96;43.29
78431;BME280;67727;50.236;22.452;2023-06-19T12:59:45;99628.02;;;27.03;43.54
78431;BME280;67727;50.236;22.452;2023-06-19T13:02:12;99626.61;;;26.98;43.11